sensor_id;sensor_type;location;lat;lon;timestamp;pressure;altitude;pressure_sealevel;temperature;humidity
64616;BME280;51027;42.162;24.754;2023-03-01T00:00:37;100551.63;;;5.84;100.00
64616;BME280;51027;42.162;24.754;2023-03-01T00:03:03;100558.50;;;6.00;100.00
64616;BME280;51027;42.162;24.754;2023-03-01T00:05:28;100541.91;;;6.07;100.00
64616;BME280;51027;42.162;24.754;2023-03-01T00:07:53;100567.09;;;6.19;100.00
64616;BME280;51027;42.162;24.754;2023-03-01T00:10:19;100544.53;;;6.05;100.00
64616;BME280;51027;42.162;24.754;2023-03-01T00:12:44;100567.22;;;6.03;100.00
64616;BME280;51027;42.162;24.754;2023-03-01T00:15:10;100570.66;;;6.07;100.00
64616;BME280;51027;42.162;24.754;2023-03-01T00:17:36;100527.22;;;5.85;100.00
64616;BME280;51027;42.162;24.754;2023-03-01T00:20:02;100563.63;;;6.17;100.00
64616;BME280;51027;42.162;24.754;2023-03-01T00:22:27;100552.22;;;6.27;100.00
64616;BME280;51027;42.162;24.754;2023-03-01T00:24:55;100550.56;;;6.11;100.00
64616;BME280;51027;42.162;24.754;2023-03-01T00:27:20;100547.13;;;6.07;100.00
64616;BME280;51027;42.162;24.754;2023-03-01T00:29:46;100538.41;;;6.06;100.00
64616;BME280;51027;42.162;24.754;2023-03-01T00:32:11;100540.16;;;6.07;100.00
64616;BME280;51027;42.162;24.754;2023-03-01T00:34:37;100567.09;;;6.19;100.00
64616;BME280;51027;42.162;24.754;2023-03-01T00:37:02;100568.78;;;6.23;100.00
64616;BME280;51027;42.162;24.754;2023-03-01T00:39:30;100559.13;;;6.31;100.00
64616;BME280;51027;42.162;24.754;2023-03-01T00:41:56;100556.53;;;6.31;100.00
64616;BME280;51027;42.162;24.754;2023-03-01T00:44:21;100541.91;;;6.05;100.00
64616;BME280;51027;42.162;24.754;2023-03-01T00:46:47;100533.19;;;6.05;100.00
64616;BME280;51027;42.162;24.754;2023-03-01T00:49:13;100539.97;;;6.30;100.00
64616;BME280;51027;42.162;24.754;2023-03-01T00:51:39;100531.91;;;6.52;100.00
64616;BME280;51027;42.162;24.754;2023-03-01T00:54:08;100526.75;;;6.47;100.00
64616;BME280;51027;42.162;24.754;2023-03-01T00:56:34;100506.91;;;6.20;100.00
64616;BME280;51027;42.162;24.754;2023-03-01T00:59:00;100518.28;;;6.18;100.00
64616;BME280;51027;42.162;24.754;2023-03-01T01:01:28;100526.84;;;6.35;100.00
64616;BME280;51027;42.162;24.754;2023-03-01T01:03:59;100497.19;;;6.33;100.00
64616;BME280;51027;42.162;24.754;2023-03-01T01:06:28;100507.63;;;6.39;100.00
64616;BME280;51027;42.162;24.754;2023-03-01T01:08:55;100518.78;;;6.58;100.00
64616;BME280;51027;42.162;24.754;2023-03-01T01:11:22;100501.50;;;6.42;100.00
64616;BME280;51027;42.162;24.754;2023-03-01T01:13:49;100525.72;;;6.62;100.00
64616;BME280;51027;42.162;24.754;2023-03-01T01:16:16;100527.69;;;6.39;100.00
64616;BME280;51027;42.162;24.754;2023-03-01T01:18:42;100510.31;;;6.30;100.00
64616;BME280;51027;42.162;24.754;2023-03-01T01:21:10;100489.59;;;6.07;100.00
64616;BME280;51027;42.162;24.754;2023-03-01T01:23:38;100472.19;;;6.01;100.00
64616;BME280;51027;42.162;24.754;2023-03-01T01:26:09;100516.38;;;6.37;100.00
64616;BME280;51027;42.162;24.754;2023-03-01T01:28:35;100495.75;;;6.03;100.00
64616;BME280;51027;42.162;24.754;2023-03-01T01:31:01;100520.84;;;6.25;100.00
64616;BME280;51027;42.162;24.754;2023-03-01T01:33:26;100504.19;;;6.34;100.00
64616;BME280;51027;42.162;24.754;2023-03-01T01:35:52;100509.34;;;6.40;100.00
64616;BME280;51027;42.162;24.754;2023-03-01T01:38:17;100516.47;;;6.26;100.00
64616;BME280;51027;42.162;24.754;2023-03-01T01:40:47;100516.56;;;6.12;100.00
64616;BME280;51027;42.162;24.754;2023-03-01T01:43:25;100511.25;;;6.26;100.00
64616;BME280;51027;42.162;24.754;2023-03-01T01:45:55;100494.78;;;6.13;100.00
64616;BME280;51027;42.162;24.754;2023-03-01T01:48:24;100509.53;;;6.19;100.00
64616;BME280;51027;42.162;24.754;2023-03-01T01:50:58;100511.19;;;6.30;100.00
64616;BME280;51027;42.162;24.754;2023-03-01T01:53:28;100509.63;;;6.08;100.00
64616;BME280;51027;42.162;24.754;2023-03-01T01:55:56;100501.75;;;6.11;100.00
64616;BME280;51027;42.162;24.754;2023-03-01T01:58:25;100485.34;;;5.95;100.00
64616;BME280;51027;42.162;24.754;2023-03-01T02:00:53;100489.72;;;5.93;100.00
64616;BME280;51027;42.162;24.754;2023-03-01T02:03:23;100500.97;;;6.04;100.00
64616;BME280;51027;42.162;24.754;2023-03-01T02:08:20;100506.91;;;6.20;100.00
64616;BME280;51027;42.162;24.754;2023-03-01T02:10:48;100440.03;;;5.87;100.00
64616;BME280;51027;42.162;24.754;2023-03-01T02:13:14;100475.63;;;6.08;100.00
64616;BME280;51027;42.162;24.754;2023-03-01T02:15:40;100483.34;;;6.26;100.00
64616;BME280;51027;42.162;24.754;2023-03-01T02:18:07;100498.03;;;6.38;100.00
64616;BME280;51027;42.162;24.754;2023-03-01T02:23:24;100486.78;;;6.28;100.00
64616;BME280;51027;42.162;24.754;2023-03-01T02:30:42;100494.84;;;6.05;100.00
64616;BME280;51027;42.162;24.754;2023-03-01T02:33:30;100493.03;;;6.11;100.00
64616;BME280;51027;42.162;24.754;2023-03-01T02:36:04;100475.69;;;6.03;100.00
64616;BME280;51027;42.162;24.754;2023-03-01T02:38:32;100483.38;;;6.19;100.00
64616;BME280;51027;42.162;24.754;2023-03-01T02:40:58;100487.66;;;6.29;100.00
64616;BME280;51027;42.162;24.754;2023-03-01T02:43:29;100489.41;;;6.28;100.00
64616;BME280;51027;42.162;24.754;2023-03-01T02:45:58;100488.75;;;6.02;100.00
64616;BME280;51027;42.162;24.754;2023-03-01T02:48:24;100494.94;;;5.89;100.00
64616;BME280;51027;42.162;24.754;2023-03-01T02:55:50;100479.34;;;5.75;100.00
64616;BME280;51027;42.162;24.754;2023-03-01T02:58:15;100491.47;;;5.82;100.00
64616;BME280;51027;42.162;24.754;2023-03-01T03:00:42;100488.75;;;6.03;100.00
64616;BME280;51027;42.162;24.754;2023-03-01T03:03:13;100478.38;;;5.88;100.00
64616;BME280;51027;42.162;24.754;2023-03-01T03:05:40;100492.34;;;5.86;100.00
64616;BME280;51027;42.162;24.754;2023-03-01T03:08:06;100488.06;;;5.75;100.00
64616;BME280;51027;42.162;24.754;2023-03-01T03:10:36;100480.19;;;5.78;100.00
64616;BME280;51027;42.162;24.754;2023-03-01T03:13:13;100494.84;;;6.02;100.00
64616;BME280;51027;42.162;24.754;2023-03-01T03:15:41;100465.38;;;5.79;100.00
64616;BME280;51027;42.162;24.754;2023-03-01T03:18:10;100469.63;;;5.97;100.00
64616;BME280;51027;42.162;24.754;2023-03-01T03:20:36;100482.78;;;5.82;100.00
64616;BME280;51027;42.162;24.754;2023-03-01T03:23:03;100492.28;;;5.98;100.00
64616;BME280;51027;42.162;24.754;2023-03-01T03:25:29;100476.66;;;5.93;100.00
64616;BME280;51027;42.162;24.754;2023-03-01T03:27:55;100482.81;;;5.78;100.00
64616;BME280;51027;42.162;24.754;2023-03-01T03:30:27;100482.81;;;5.77;100.00
64616;BME280;51027;42.162;24.754;2023-03-01T03:32:53;100489.81;;;5.73;100.00
64616;BME280;51027;42.162;24.754;2023-03-01T03:35:24;100493.19;;;5.88;100.00
64616;BME280;51027;42.162;24.754;2023-03-01T03:37:51;100495.78;;;5.92;100.00
64616;BME280;51027;42.162;24.754;2023-03-01T03:40:37;100482.78;;;5.80;100.00
64616;BME280;51027;42.162;24.754;2023-03-01T03:43:05;100479.31;;;5.83;100.00
64616;BME280;51027;42.162;24.754;2023-03-01T03:45:31;100481.13;;;5.73;100.00
64616;BME280;51027;42.162;24.754;2023-03-01T03:47:59;100481.06;;;5.79;100.00
64616;BME280;51027;42.162;24.754;2023-03-01T03:50:25;100457.56;;;5.71;100.00
64616;BME280;51027;42.162;24.754;2023-03-01T03:52:50;100455.84;;;5.75;100.00
64616;BME280;51027;42.162;24.754;2023-03-01T03:55:16;100467.16;;;5.74;100.00
64616;BME280;51027;42.162;24.754;2023-03-01T03:57:45;100478.50;;;5.73;100.00
64616;BME280;51027;42.162;24.754;2023-03-01T04:00:18;100476.72;;;5.76;100.00
64616;BME280;51027;42.162;24.754;2023-03-01T04:02:44;100483.72;;;5.71;100.00
64616;BME280;51027;42.162;24.754;2023-03-01T04:05:11;100492.41;;;5.72;100.00
64616;BME280;51027;42.162;24.754;2023-03-01T04:07:37;100475.03;;;5.68;100.00
64616;BME280;51027;42.162;24.754;2023-03-01T04:10:16;100477.69;;;5.65;100.00
64616;BME280;51027;42.162;24.754;2023-03-01T04:12:42;100475.00;;;5.74;100.00
64616;BME280;51027;42.162;24.754;2023-03-01T04:15:09;100447.31;;;5.47;100.00
64616;BME280;51027;42.162;24.754;2023-03-01T04:17:42;100478.63;;;5.53;100.00
64616;BME280;51027;42.162;24.754;2023-03-01T04:20:09;100482.94;;;5.57;100.00
64616;BME280;51027;42.162;24.754;2023-03-01T04:22:37;100486.38;;;5.67;100.00
64616;BME280;51027;42.162;24.754;2023-03-01T04:25:02;100474.25;;;5.57;100.00
64616;BME280;51027;42.162;24.754;2023-03-01T04:27:27;100480.28;;;5.62;100.00
64616;BME280;51027;42.162;24.754;2023-03-01T04:29:53;100475.91;;;5.68;100.00
64616;BME280;51027;42.162;24.754;2023-03-01T04:32:21;100485.44;;;5.75;100.00
64616;BME280;51027;42.162;24.754;2023-03-01T04:34:47;100462.81;;;5.74;100.00
64616;BME280;51027;42.162;24.754;2023-03-01T04:37:12;100490.56;;;5.88;100.00
64616;BME280;51027;42.162;24.754;2023-03-01T04:39:37;100493.31;;;5.69;100.00
64616;BME280;51027;42.162;24.754;2023-03-01T04:42:13;100489.84;;;5.67;100.00
64616;BME280;51027;42.162;24.754;2023-03-01T04:44:39;100497.66;;;5.73;100.00
64616;BME280;51027;42.162;24.754;2023-03-01T04:47:04;100489.78;;;5.76;100.00
64616;BME280;51027;42.162;24.754;2023-03-01T04:49:30;100493.22;;;5.82;100.00
64616;BME280;51027;42.162;24.754;2023-03-01T04:51:56;100501.94;;;5.81;100.00
64616;BME280;51027;42.162;24.754;2023-03-01T04:54:27;100498.50;;;5.75;100.00
64616;BME280;51027;42.162;24.754;2023-03-01T04:56:53;100501.03;;;5.95;100.00
64616;BME280;51027;42.162;24.754;2023-03-01T04:59:19;100497.53;;;5.96;100.00
64616;BME280;51027;42.162;24.754;2023-03-01T05:01:51;100499.28;;;5.88;100.00
64616;BME280;51027;42.162;24.754;2023-03-01T05:04:17;100497.63;;;5.76;100.00
64616;BME280;51027;42.162;24.754;2023-03-01T05:06:42;100489.81;;;5.75;100.00
64616;BME280;51027;42.162;24.754;2023-03-01T05:09:07;100488.91;;;5.77;100.00
64616;BME280;51027;42.162;24.754;2023-03-01T05:11:33;100487.16;;;5.78;100.00
64616;BME280;51027;42.162;24.754;2023-03-01T05:14:05;100464.59;;;5.62;100.00
64616;BME280;51027;42.162;24.754;2023-03-01T05:16:30;100481.91;;;5.79;100.00
64616;BME280;51027;42.162;24.754;2023-03-01T05:18:58;100490.59;;;5.86;100.00
64616;BME280;51027;42.162;24.754;2023-03-01T05:21:23;100491.44;;;5.91;100.00
64616;BME280;51027;42.162;24.754;2023-03-01T05:23:49;100474.00;;;5.96;100.00
64616;BME280;51027;42.162;24.754;2023-03-01T05:26:17;100481.88;;;5.87;100.00
64616;BME280;51027;42.162;24.754;2023-03-01T05:28:43;100482.81;;;5.78;100.00
64616;BME280;51027;42.162;24.754;2023-03-01T05:31:09;100489.66;;;5.98;100.00
64616;BME280;51027;42.162;24.754;2023-03-01T05:33:40;100489.81;;;5.75;100.00
64616;BME280;51027;42.162;24.754;2023-03-01T05:36:07;100488.03;;;5.78;100.00
64616;BME280;51027;42.162;24.754;2023-03-01T05:38:33;100492.31;;;5.93;100.00
64616;BME280;51027;42.162;24.754;2023-03-01T05:40:59;100503.63;;;5.97;100.00
64616;BME280;51027;42.162;24.754;2023-03-01T05:43:25;100500.16;;;5.87;100.00
64616;BME280;51027;42.162;24.754;2023-03-01T05:45:51;100501.84;;;6.00;100.00
64616;BME280;51027;42.162;24.754;2023-03-01T05:48:16;100512.25;;;6.08;100.00
64616;BME280;51027;42.162;24.754;2023-03-01T05:50:44;100503.66;;;5.88;100.00
64616;BME280;51027;42.162;24.754;2023-03-01T05:53:16;100498.41;;;5.92;100.00
64616;BME280;51027;42.162;24.754;2023-03-01T05:55:42;100515.75;;;6.05;100.00
64616;BME280;51027;42.162;24.754;2023-03-01T05:58:14;100516.56;;;6.14;100.00
64616;BME280;51027;42.162;24.754;2023-03-01T06:00:41;100526.22;;;6.02;100.00
64616;BME280;51027;42.162;24.754;2023-03-01T06:03:09;100502.63;;;6.15;100.00
64616;BME280;51027;42.162;24.754;2023-03-01T06:05:35;100528.75;;;6.18;100.00
64616;BME280;51027;42.162;24.754;2023-03-01T06:08:01;100533.03;;;6.26;100.00
64616;BME280;51027;42.162;24.754;2023-03-01T06:10:27;100522.66;;;6.14;100.00
64616;BME280;51027;42.162;24.754;2023-03-01T06:12:53;100521.91;;;5.98;100.00
64616;BME280;51027;42.162;24.754;2023-03-01T06:15:18;100524.41;;;6.15;100.00
64616;BME280;51027;42.162;24.754;2023-03-01T06:17:45;100519.34;;;5.94;100.00
64616;BME280;51027;42.162;24.754;2023-03-01T06:20:14;100519.31;;;5.97;100.00
64616;BME280;51027;42.162;24.754;2023-03-01T06:22:40;100523.63;;;6.04;100.00
64616;BME280;51027;42.162;24.754;2023-03-01T06:25:07;100519.19;;;6.12;100.00
64616;BME280;51027;42.162;24.754;2023-03-01T06:27:33;100512.28;;;6.00;100.00
64616;BME280;51027;42.162;24.754;2023-03-01T06:29:59;100517.50;;;6.06;100.00
64616;BME280;51027;42.162;24.754;2023-03-01T06:32:24;100524.38;;;6.17;100.00
64616;BME280;51027;42.162;24.754;2023-03-01T06:34:50;100527.81;;;6.25;100.00
64616;BME280;51027;42.162;24.754;2023-03-01T06:37:16;100518.31;;;6.12;100.00
64616;BME280;51027;42.162;24.754;2023-03-01T06:39:41;100513.06;;;6.16;100.00
64616;BME280;51027;42.162;24.754;2023-03-01T06:42:08;100528.59;;;6.34;100.00
64616;BME280;51027;42.162;24.754;2023-03-01T06:44:35;100532.94;;;6.37;100.00
64616;BME280;51027;42.162;24.754;2023-03-01T06:47:00;100515.44;;;6.44;100.00
64616;BME280;51027;42.162;24.754;2023-03-01T06:49:25;100527.53;;;6.55;100.00
64616;BME280;51027;42.162;24.754;2023-03-01T06:51:51;100526.06;;;6.25;100.00
64616;BME280;51027;42.162;24.754;2023-03-01T06:54:16;100527.56;;;6.51;100.00
64616;BME280;51027;42.162;24.754;2023-03-01T06:56:43;100521.50;;;6.49;100.00
64616;BME280;51027;42.162;24.754;2023-03-01T06:59:08;100507.66;;;6.38;100.00
64616;BME280;51027;42.162;24.754;2023-03-01T07:01:33;100525.91;;;6.41;100.00
64616;BME280;51027;42.162;24.754;2023-03-01T07:03:59;100501.66;;;6.25;100.00
64616;BME280;51027;42.162;24.754;2023-03-01T07:06:24;100526.66;;;6.53;100.00
64616;BME280;51027;42.162;24.754;2023-03-01T07:08:50;100527.38;;;6.72;100.00
64616;BME280;51027;42.162;24.754;2023-03-01T07:11:15;100518.53;;;6.85;100.00
64616;BME280;51027;42.162;24.754;2023-03-01T07:13:41;100521.88;;;6.98;100.00
64616;BME280;51027;42.162;24.754;2023-03-01T07:16:07;100524.47;;;6.98;100.00
64616;BME280;51027;42.162;24.754;2023-03-01T07:18:33;100506.09;;;7.03;100.00
64616;BME280;51027;42.162;24.754;2023-03-01T07:20:58;100497.34;;;7.04;100.00
64616;BME280;51027;42.162;24.754;2023-03-01T07:23:23;100521.78;;;7.06;100.00
64616;BME280;51027;42.162;24.754;2023-03-01T07:25:55;100460.16;;;6.73;100.00
64616;BME280;51027;42.162;24.754;2023-03-01T07:28:23;100524.47;;;6.98;100.00
64616;BME280;51027;42.162;24.754;2023-03-01T07:30:48;100522.88;;;6.86;100.00
64616;BME280;51027;42.162;24.754;2023-03-01T07:33:14;100525.41;;;6.91;100.00
64616;BME280;51027;42.162;24.754;2023-03-01T07:35:39;100525.50;;;6.83;100.00
64616;BME280;51027;42.162;24.754;2023-03-01T07:38:04;100514.00;;;6.98;100.00
64616;BME280;51027;42.162;24.754;2023-03-01T07:40:30;100523.66;;;6.93;100.00
64616;BME280;51027;42.162;24.754;2023-03-01T07:42:58;100512.31;;;6.92;100.00
64616;BME280;51027;42.162;24.754;2023-03-01T07:45:25;100481.03;;;6.80;100.00
64616;BME280;51027;42.162;24.754;2023-03-01T07:47:54;100506.78;;;7.18;100.00
64616;BME280;51027;42.162;24.754;2023-03-01T07:50:20;100507.72;;;7.13;100.00
64616;BME280;51027;42.162;24.754;2023-03-01T07:52:47;100513.59;;;7.32;100.00
64616;BME280;51027;42.162;24.754;2023-03-01T07:55:13;100509.94;;;7.43;100.00
64616;BME280;51027;42.162;24.754;2023-03-01T07:57:39;100505.53;;;7.48;100.00
64616;BME280;51027;42.162;24.754;2023-03-01T08:00:05;100488.75;;;7.60;100.00
64616;BME280;51027;42.162;24.754;2023-03-01T08:02:31;100501.25;;;7.40;100.00
64616;BME280;51027;42.162;24.754;2023-03-01T08:04:57;100503.22;;;7.26;100.00
64616;BME280;51027;42.162;24.754;2023-03-01T08:07:22;100504.13;;;7.21;100.00
64616;BME280;51027;42.162;24.754;2023-03-01T08:09:47;100503.06;;;7.35;100.00
64616;BME280;51027;42.162;24.754;2023-03-01T08:12:13;100510.94;;;7.36;100.00
64616;BME280;51027;42.162;24.754;2023-03-01T08:14:38;100502.25;;;7.31;100.00
64616;BME280;51027;42.162;24.754;2023-03-01T08:17:04;100503.94;;;7.34;100.00
64616;BME280;51027;42.162;24.754;2023-03-01T08:19:30;100482.66;;;6.90;100.00
64616;BME280;51027;42.162;24.754;2023-03-01T08:21:55;100503.56;;;6.95;100.00
64616;BME280;51027;42.162;24.754;2023-03-01T08:24:23;100506.16;;;6.98;100.00
64616;BME280;51027;42.162;24.754;2023-03-01T08:26:49;100498.22;;;7.06;100.00
64616;BME280;51027;42.162;24.754;2023-03-01T08:29:14;100507.47;;;7.31;100.00
64616;BME280;51027;42.162;24.754;2023-03-01T08:31:40;100480.50;;;7.26;100.00
64616;BME280;51027;42.162;24.754;2023-03-01T08:34:09;100470.72;;;7.37;100.00
64616;BME280;51027;42.162;24.754;2023-03-01T08:36:37;100478.88;;;7.16;100.00
64616;BME280;51027;42.162;24.754;2023-03-01T08:39:04;100490.22;;;7.16;100.00
64616;BME280;51027;42.162;24.754;2023-03-01T08:41:30;100492.53;;;7.39;100.00
64616;BME280;51027;42.162;24.754;2023-03-01T08:43:56;100501.13;;;7.49;100.00
64616;BME280;51027;42.162;24.754;2023-03-01T08:46:28;100499.50;;;7.40;100.00
64616;BME280;51027;42.162;24.754;2023-03-01T08:48:54;100500.00;;;7.01;100.00
64616;BME280;51027;42.162;24.754;2023-03-01T08:51:21;100496.47;;;7.03;100.00
64616;BME280;51027;42.162;24.754;2023-03-01T08:53:47;100505.94;;;7.13;100.00
64616;BME280;51027;42.162;24.754;2023-03-01T08:56:13;100498.97;;;7.15;100.00
64616;BME280;51027;42.162;24.754;2023-03-01T08:58:39;100497.69;;;7.44;100.00
64616;BME280;51027;42.162;24.754;2023-03-01T09:01:13;100503.94;;;7.34;100.00
64616;BME280;51027;42.162;24.754;2023-03-01T09:03:38;100479.06;;;6.99;100.00
64616;BME280;51027;42.162;24.754;2023-03-01T09:06:05;100498.09;;;7.16;100.00
64616;BME280;51027;42.162;24.754;2023-03-01T09:08:34;100494.72;;;7.05;100.00
64616;BME280;51027;42.162;24.754;2023-03-01T09:11:05;100498.03;;;7.19;100.00
64616;BME280;51027;42.162;24.754;2023-03-01T09:13:31;100491.97;;;7.14;100.00
64616;BME280;51027;42.162;24.754;2023-03-01T09:16:01;100500.56;;;7.27;100.00
64616;BME280;51027;42.162;24.754;2023-03-01T09:18:27;100479.03;;;7.01;100.00
64616;BME280;51027;42.162;24.754;2023-03-01T09:20:53;100495.38;;;7.22;100.00
64616;BME280;51027;42.162;24.754;2023-03-01T09:23:21;100481.66;;;7.02;100.00
64616;BME280;51027;42.162;24.754;2023-03-01T09:25:47;100478.00;;;7.14;100.00
64616;BME280;51027;42.162;24.754;2023-03-01T09:28:12;100498.63;;;7.40;100.00
64616;BME280;51027;42.162;24.754;2023-03-01T09:30:37;100503.84;;;7.43;100.00
64616;BME280;51027;42.162;24.754;2023-03-01T09:33:03;100494.34;;;7.36;100.00
64616;BME280;51027;42.162;24.754;2023-03-01T09:35:28;100494.69;;;7.71;100.00
64616;BME280;51027;42.162;24.754;2023-03-01T09:37:54;100491.66;;;7.39;100.00
64616;BME280;51027;42.162;24.754;2023-03-01T09:40:21;100495.22;;;7.36;100.00
64616;BME280;51027;42.162;24.754;2023-03-01T09:43:01;100475.78;;;7.51;100.00
64616;BME280;51027;42.162;24.754;2023-03-01T09:45:35;100477.81;;;7.29;100.00
64616;BME280;51027;42.162;24.754;2023-03-01T09:48:05;100494.88;;;7.59;100.00
64616;BME280;51027;42.162;24.754;2023-03-01T09:50:36;100492.78;;;7.83;100.00
64616;BME280;51027;42.162;24.754;2023-03-01T09:53:17;100448.31;;;7.75;100.00
64616;BME280;51027;42.162;24.754;2023-03-01T09:55:51;100489.03;;;7.99;100.00
64616;BME280;51027;42.162;24.754;2023-03-01T10:01:30;100487.22;;;8.02;100.00
64616;BME280;51027;42.162;24.754;2023-03-01T10:09:57;100475.47;;;7.71;100.00
64616;BME280;51027;42.162;24.754;2023-03-01T10:12:27;100468.56;;;7.67;100.00
64616;BME280;51027;42.162;24.754;2023-03-01T10:15:12;100472.28;;;8.06;100.00
64616;BME280;51027;42.162;24.754;2023-03-01T10:20:22;100444.97;;;7.65;100.00
64616;BME280;51027;42.162;24.754;2023-03-01T10:22:48;100460.53;;;7.77;100.00
64616;BME280;51027;42.162;24.754;2023-03-01T10:27:53;100442.63;;;7.48;100.00
64616;BME280;51027;42.162;24.754;2023-03-01T10:30:35;100467.72;;;7.63;100.00
64616;BME280;51027;42.162;24.754;2023-03-01T10:33:22;100450.59;;;7.41;100.00
64616;BME280;51027;42.162;24.754;2023-03-01T10:35:48;100408.75;;;7.33;100.00
64616;BME280;51027;42.162;24.754;2023-03-01T10:38:16;100465.09;;;7.63;100.00
64616;BME280;51027;42.162;24.754;2023-03-01T10:40:54;100457.31;;;7.59;100.00
64616;BME280;51027;42.162;24.754;2023-03-01T10:43:25;100461.25;;;7.86;100.00
64616;BME280;51027;42.162;24.754;2023-03-01T10:45:52;100467.47;;;7.80;100.00
64616;BME280;51027;42.162;24.754;2023-03-01T10:48:22;100457.94;;;7.74;100.00
64616;BME280;51027;42.162;24.754;2023-03-01T10:56:06;100435.59;;;7.50;100.00
64616;BME280;51027;42.162;24.754;2023-03-01T10:58:34;100446.72;;;7.65;100.00
64616;BME280;51027;42.162;24.754;2023-03-01T11:01:03;100442.19;;;7.74;100.00
64616;BME280;51027;42.162;24.754;2023-03-01T11:03:38;100400.50;;;7.59;100.00
64616;BME280;51027;42.162;24.754;2023-03-01T11:06:05;100437.66;;;7.87;100.00
64616;BME280;51027;42.162;24.754;2023-03-01T11:08:43;100420.16;;;7.86;100.00
64616;BME280;51027;42.162;24.754;2023-03-01T11:13:35;100401.56;;;8.01;100.00
64616;BME280;51027;42.162;24.754;2023-03-01T11:16:06;100415.28;;;7.66;100.00
64616;BME280;51027;42.162;24.754;2023-03-01T11:18:33;100418.06;;;7.54;100.00
64616;BME280;51027;42.162;24.754;2023-03-01T11:20:59;100409.50;;;7.43;100.00
64616;BME280;51027;42.162;24.754;2023-03-01T11:23:28;100414.50;;;7.58;100.00
64616;BME280;51027;42.162;24.754;2023-03-01T11:25:57;100405.63;;;7.68;100.00
64616;BME280;51027;42.162;24.754;2023-03-01T11:28:25;100400.22;;;7.77;100.00
64616;BME280;51027;42.162;24.754;2023-03-01T11:31:05;100407.78;;;7.94;100.00
64616;BME280;51027;42.162;24.754;2023-03-01T11:38:47;100397.41;;;7.90;100.00
64616;BME280;51027;42.162;24.754;2023-03-01T11:41:18;100373.63;;;7.99;100.00
64616;BME280;51027;42.162;24.754;2023-03-01T12:10:43;100375.00;;;7.70;100.00
64616;BME280;51027;42.162;24.754;2023-03-01T12:22:05;100359.34;;;7.64;100.00
64616;BME280;51027;42.162;24.754;2023-03-01T12:27:26;100337.66;;;7.56;100.00
64616;BME280;51027;42.162;24.754;2023-03-01T12:43:50;100345.56;;;7.53;100.00
64616;BME280;51027;42.162;24.754;2023-03-01T12:51:35;100343.13;;;7.41;100.00
64616;BME280;51027;42.162;24.754;2023-03-01T12:54:26;100337.81;;;7.45;100.00
64616;BME280;51027;42.162;24.754;2023-03-01T12:56:53;100324.03;;;7.33;100.00
64616;BME280;51027;42.162;24.754;2023-03-01T12:59:37;100314.47;;;7.30;100.00
64616;BME280;51027;42.162;24.754;2023-03-01T13:17:57;100330.00;;;7.93;100.00
64616;BME280;51027;42.162;24.754;2023-03-01T13:23:09;100324.09;;;7.82;100.00
64616;BME280;51027;42.162;24.754;2023-03-01T13:28:52;100340.72;;;7.81;100.00
64616;BME280;51027;42.162;24.754;2023-03-01T13:33:53;100346.38;;;7.55;100.00
64616;BME280;51027;42.162;24.754;2023-03-01T13:49:47;100338.25;;;7.72;100.00
64616;BME280;51027;42.162;24.754;2023-03-01T13:54:57;100336.50;;;7.72;100.00
64616;BME280;51027;42.162;24.754;2023-03-01T13:57:27;100345.66;;;7.45;100.00
64616;BME280;51027;42.162;24.754;2023-03-01T13:59:55;100349.31;;;7.37;100.00
64616;BME280;51027;42.162;24.754;2023-03-01T14:02:20;100345.94;;;7.29;100.00
64616;BME280;51027;42.162;24.754;2023-03-01T14:04:56;100338.31;;;7.69;100.00
64616;BME280;51027;42.162;24.754;2023-03-01T14:07:23;100349.91;;;7.54;100.00
64616;BME280;51027;42.162;24.754;2023-03-01T14:09:56;100354.25;;;7.55;100.00
64616;BME280;51027;42.162;24.754;2023-03-01T14:12:36;100357.69;;;7.60;100.00
64616;BME280;51027;42.162;24.754;2023-03-01T14:15:19;100351.44;;;7.69;100.00
64616;BME280;51027;42.162;24.754;2023-03-01T14:18:14;100351.22;;;7.81;100.00
64616;BME280;51027;42.162;24.754;2023-03-01T14:20:43;100348.03;;;7.62;100.00
64616;BME280;51027;42.162;24.754;2023-03-01T14:23:20;100348.16;;;7.56;100.00
64616;BME280;51027;42.162;24.754;2023-03-01T14:25:48;100347.25;;;7.57;100.00
64616;BME280;51027;42.162;24.754;2023-03-01T14:28:18;100348.47;;;7.36;100.00
64616;BME280;51027;42.162;24.754;2023-03-01T14:30:46;100337.81;;;7.45;100.00
64616;BME280;51027;42.162;24.754;2023-03-01T14:33:33;100350.78;;;7.53;100.00
64616;BME280;51027;42.162;24.754;2023-03-01T14:36:03;100352.41;;;7.62;100.00
64616;BME280;51027;42.162;24.754;2023-03-01T14:38:31;100351.53;;;7.61;100.00
64616;BME280;51027;42.162;24.754;2023-03-01T14:41:03;100356.94;;;7.52;100.00
64616;BME280;51027;42.162;24.754;2023-03-01T14:43:30;100356.03;;;7.53;100.00
64616;BME280;51027;42.162;24.754;2023-03-01T14:45:56;100345.66;;;7.48;100.00
64616;BME280;51027;42.162;24.754;2023-03-01T14:48:22;100309.94;;;7.41;100.00
64616;BME280;51027;42.162;24.754;2023-03-01T14:50:49;100336.88;;;7.49;100.00
64616;BME280;51027;42.162;24.754;2023-03-01T14:53:27;100349.16;;;7.47;100.00
64616;BME280;51027;42.162;24.754;2023-03-01T14:55:55;100342.91;;;7.55;100.00
64616;BME280;51027;42.162;24.754;2023-03-01T14:58:24;100348.75;;;7.72;100.00
64616;BME280;51027;42.162;24.754;2023-03-01T15:00:55;100345.59;;;7.51;100.00
64616;BME280;51027;42.162;24.754;2023-03-01T15:03:36;100346.78;;;7.31;100.00
64616;BME280;51027;42.162;24.754;2023-03-01T15:06:06;100359.78;;;7.38;100.00